Time;durP1;ratioP1;P1;durP2;ratioP2;P2;SDS_P1;SDS_P2;PMS_P1;PMS_P2;Temp;Humidity;BMP_temperature;BMP_pressure;BME280_temperature;BME280_humidity;BME280_pressure;Samples;Min_cycle;Max_cycle;Signal;HPM_P1;HPM_P2
2021/12/05 01:01:40;;;;;;;13.57;2.22;;;;;;;4.19;93.74;99228.75;20702563;28;20050;-84
2021/12/05 01:12:05;;;;;;;9.65;2.28;;;;;;;4.41;90.82;99241.50;20699339;28;20050;-83
2021/12/05 01:22:11;;;;;;;10.07;2.00;;;;;;;4.37;90.16;99240.69;20699923;28;20384;-83
2021/12/05 01:32:22;;;;;;;8.00;1.50;;;;;;;4.50;89.03;99231.06;20675668;28;20427;-83
2021/12/05 01:52:48;;;;;;;10.40;1.60;;;;;;;4.44;91.36;99247.53;20700597;28;20046;-83
2021/12/05 02:34:07;;;;;;;8.43;1.65;;;;;;;4.01;96.50;99200.44;20731799;28;20072;-83
2021/12/05 02:54:17;;;;;;;6.80;1.60;;;;;;;4.02;99.60;99196.97;20728644;28;20081;-83
2021/12/05 03:04:18;;;;;;;9.13;1.83;;;;;;;4.01;100.00;99201.28;20726302;28;20676;-83
2021/12/05 03:14:20;;;;;;;11.00;1.83;;;;;;;4.00;99.30;99202.16;20684054;28;20105;-83
2021/12/05 03:24:23;;;;;;;8.30;1.58;;;;;;;4.04;99.42;99190.91;20694785;28;20058;-84
2021/12/05 03:34:25;;;;;;;10.23;2.50;;;;;;;4.02;99.40;99179.69;20679708;28;20054;-83
2021/12/05 03:44:31;;;;;;;8.10;2.00;;;;;;;4.01;98.22;99166.75;20679655;28;20082;-83
2021/12/05 03:54:33;;;;;;;11.13;1.70;;;;;;;3.83;98.74;99166.06;20709061;28;20096;-83
2021/12/05 04:04:35;;;;;;;6.28;1.65;;;;;;;3.68;99.68;99160.97;20695581;28;20054;-84
2021/12/05 04:14:44;;;;;;;6.07;1.60;;;;;;;3.77;99.97;99157.47;20723661;28;20050;-83
2021/12/05 04:24:47;;;;;;;6.18;1.85;;;;;;;3.84;99.82;99147.06;20688734;28;20475;-83
2021/12/05 04:34:48;;;;;;;7.20;1.50;;;;;;;3.80;100.00;99158.31;20686978;28;20124;-84
2021/12/05 04:44:50;;;;;;;6.88;1.65;;;;;;;3.80;100.00;99167.81;20674602;28;20050;-84
2021/12/05 04:54:52;;;;;;;6.57;1.48;;;;;;;3.84;99.41;99156.56;20672131;28;20105;-83
2021/12/05 05:04:54;;;;;;;6.85;1.52;;;;;;;3.69;98.26;99136.84;20673867;28;20046;-84
2021/12/05 05:14:56;;;;;;;8.48;1.40;;;;;;;3.68;98.96;99158.41;20689928;28;20042;-84
2021/12/05 05:55:55;;;;;;;6.68;2.17;;;;;;;3.43;99.15;99157.72;20729827;28;20451;-83
2021/12/05 06:06:03;;;;;;;8.05;1.60;;;;;;;3.15;100.00;99174.28;20722806;28;20096;-84
2021/12/05 06:16:10;;;;;;;5.65;1.45;;;;;;;3.33;100.00;99169.88;20716296;28;20127;-83
2021/12/05 06:26:21;;;;;;;4.53;1.40;;;;;;;3.45;100.00;99168.06;20732097;28;20104;-83
2021/12/05 06:46:44;;;;;;;6.65;1.80;;;;;;;3.24;99.67;99188.03;20734628;28;20049;-84
2021/12/05 06:56:45;;;;;;;5.47;1.40;;;;;;;3.34;99.94;99191.41;20729262;28;20050;-83
2021/12/05 07:06:47;;;;;;;7.55;1.60;;;;;;;3.31;99.68;99199.22;20728218;28;20753;-84
2021/12/05 07:47:27;;;;;;;8.85;3.65;;;;;;;3.00;100.00;99216.59;20745319;28;20121;-87
2021/12/05 07:57:38;;;;;;;6.18;1.83;;;;;;;3.40;100.00;99230.19;20725710;28;20121;-84
2021/12/05 08:18:00;;;;;;;5.63;1.67;;;;;;;3.84;97.50;99214.38;20749300;28;20471;-85
2021/12/05 08:28:41;;;;;;;16.42;5.15;;;;;;;4.03;96.72;99220.28;20721071;28;20054;-84
2021/12/05 09:50:52;;;;;;;3.90;1.27;;;;;;;4.62;93.73;99259.47;20743152;28;20072;-85
2021/12/05 09:51:22;;;;;;;4.82;2.05;;;;;;;4.63;95.23;99269.81;20740503;28;20049;-85
2021/12/05 10:11:50;;;;;;;4.93;1.55;;;;;;;4.40;95.03;99270.91;20741255;28;20474;-84
2021/12/05 10:42:45;;;;;;;7.07;2.20;;;;;;;4.53;98.04;99255.22;20756687;28;20475;-88
2021/12/05 10:52:46;;;;;;;8.18;2.20;;;;;;;4.86;97.52;99251.41;20749449;28;20582;-86
2021/12/05 11:02:48;;;;;;;5.85;2.10;;;;;;;4.96;96.67;99251.31;20725935;28;20120;-88
2021/12/05 11:12:50;;;;;;;5.57;2.40;;;;;;;4.77;97.30;99235.97;20734027;28;20081;-85
2021/12/05 11:22:51;;;;;;;9.18;3.00;;;;;;;4.77;97.85;99228.19;20721665;28;20108;-85
2021/12/05 11:32:56;;;;;;;7.13;2.97;;;;;;;5.24;96.65;99229.34;20731826;28;20054;-85
2021/12/05 11:43:02;;;;;;;5.72;1.70;;;;;;;5.50;94.53;99222.94;20732248;28;20439;-84
2021/12/05 11:53:04;;;;;;;4.93;2.50;;;;;;;5.80;94.53;99227.69;20743512;28;20128;-85
2021/12/05 12:03:05;;;;;;;7.22;2.15;;;;;;;5.86;91.07;99206.81;20733204;28;20042;-85
2021/12/05 12:13:13;;;;;;;7.10;2.60;;;;;;;5.95;90.95;99205.84;20731747;28;20640;-87
2021/12/05 12:23:18;;;;;;;5.85;1.70;;;;;;;6.25;85.91;99203.63;20723515;28;20050;-86
2021/12/05 12:33:36;;;;;;;5.85;1.77;;;;;;;6.63;84.00;99187.31;20727942;28;20054;-86
2021/12/05 12:44:02;;;;;;;3.35;0.80;;;;;;;5.91;84.26;99189.44;20733974;28;20046;-83
2021/12/05 12:54:17;;;;;;;2.33;1.00;;;;;;;6.04;84.81;99192.72;20726140;28;20053;-85
2021/12/05 13:15:07;;;;;;;2.97;1.30;;;;;;;5.61;86.92;99184.72;20743690;28;20400;-84
2021/12/05 13:25:10;;;;;;;5.55;1.83;;;;;;;5.53;88.02;99178.78;20744100;28;20469;-84
2021/12/05 13:35:24;;;;;;;8.32;2.30;;;;;;;5.50;88.11;99196.97;20715245;28;20061;-84
2021/12/05 13:45:25;;;;;;;5.20;0.90;;;;;;;5.68;84.37;99191.50;20726163;28;20054;-84
2021/12/05 13:56:04;;;;;;;4.15;1.52;;;;;;;5.75;84.85;99200.94;20734434;28;20046;-85
2021/12/05 14:06:34;;;;;;;4.10;1.40;;;;;;;5.62;88.13;99220.19;20744449;28;20050;-84
2021/12/05 14:16:40;;;;;;;4.80;1.52;;;;;;;5.25;89.72;99231.06;20740015;28;20061;-84
2021/12/05 14:26:42;;;;;;;;;;;;;;;5.47;88.84;99233.38;20736761;28;20070;-84
2021/12/05 14:36:57;;;;;;;6.70;1.90;;;;;;;5.23;89.54;99232.84;20733322;28;19988;-83
2021/12/05 14:47:09;;;;;;;;;;;;;;;5.05;91.24;99249.47;20723051;28;20860;-86
2021/12/05 14:57:22;;;;;;;8.68;2.97;;;;;;;4.99;91.56;99272.03;20708931;28;19976;-86
2021/12/05 15:07:25;;;;;;;5.20;1.65;;;;;;;4.73;93.41;99290.47;20694210;28;20587;-86
2021/12/05 15:17:33;;;;;;;7.55;3.35;;;;;;;4.48;95.25;99310.56;20748647;28;20081;-86
2021/12/05 15:27:37;;;;;;;8.50;4.03;;;;;;;4.35;96.61;99318.44;20722618;28;20050;-85
2021/12/05 15:37:50;;;;;;;15.65;7.90;;;;;;;4.32;96.90;99331.44;20697037;28;20070;-85
2021/12/05 15:47:51;;;;;;;15.30;6.60;;;;;;;4.34;97.58;99350.41;20750207;28;20479;-86
2021/12/05 15:58:09;;;;;;;6.90;3.90;;;;;;;4.24;98.39;99359.13;20731179;28;20053;-87
2021/12/05 16:08:13;;;;;;;41.15;15.85;;;;;;;4.14;97.97;99360.06;20729603;28;20704;-85
2021/12/05 16:18:15;;;;;;;11.27;5.50;;;;;;;4.00;98.62;99364.47;20721144;28;20049;-83
2021/12/05 16:28:25;;;;;;;15.88;8.60;;;;;;;3.91;99.67;99360.19;20741821;28;20483;-84
2021/12/05 16:38:34;;;;;;;30.67;15.18;;;;;;;3.90;99.73;99375.75;20729168;28;20046;-83
2021/12/05 16:48:38;;;;;;;10.98;6.30;;;;;;;3.93;100.00;99391.25;20762040;28;20058;-84
2021/12/05 16:58:42;;;;;;;10.85;6.22;;;;;;;3.95;99.77;99387.78;20739017;28;20058;-85
2021/12/05 17:08:47;;;;;;;12.00;4.97;;;;;;;3.91;99.37;99401.63;20737445;28;20058;-84
2021/12/05 17:19:06;;;;;;;8.50;3.80;;;;;;;3.57;100.00;99406.09;20739580;28;20129;-84
2021/12/05 17:29:22;;;;;;;7.15;3.50;;;;;;;3.73;99.24;99420.69;20761341;28;20052;-83
2021/12/05 17:39:27;;;;;;;8.85;4.65;;;;;;;3.79;98.84;99427.59;20744903;28;20573;-84
2021/12/05 17:49:34;;;;;;;18.55;9.65;;;;;;;3.88;98.26;99437.91;20741405;28;20108;-84
2021/12/05 17:59:49;;;;;;;7.75;3.38;;;;;;;3.88;98.34;99447.38;20737771;28;20053;-83
2021/12/05 18:09:50;;;;;;;11.43;6.90;;;;;;;3.95;98.28;99465.50;20738188;28;20459;-83
2021/12/05 18:19:52;;;;;;;9.70;5.10;;;;;;;3.93;97.93;99477.59;20726894;28;20463;-83
2021/12/05 18:29:54;;;;;;;7.22;3.85;;;;;;;3.76;96.93;99498.34;20741887;28;20061;-82
2021/12/05 18:39:55;;;;;;;12.23;4.15;;;;;;;3.49;99.06;99501.84;20718289;28;20046;-82
2021/12/05 18:49:58;;;;;;;4.15;1.85;;;;;;;3.27;98.29;99523.47;20740935;28;20078;-83
2021/12/05 19:00:07;;;;;;;5.05;2.20;;;;;;;3.10;100.00;99541.53;20748122;28;20463;-84
2021/12/05 19:20:38;;;;;;;10.85;2.92;;;;;;;2.65;100.00;99563.03;20728217;28;20078;-84
2021/12/05 19:30:44;;;;;;;11.48;5.05;;;;;;;2.57;100.00;99573.31;20734159;28;20046;-84
2021/12/05 19:40:45;;;;;;;4.47;2.00;;;;;;;2.46;100.00;99575.03;20745875;28;20062;-83
2021/12/05 19:50:48;;;;;;;10.80;5.43;;;;;;;2.58;100.00;99575.06;20761073;28;20463;-84
2021/12/05 20:00:49;;;;;;;9.75;4.35;;;;;;;2.73;100.00;99585.47;20763250;28;20097;-83
2021/12/05 20:10:51;;;;;;;6.00;2.78;;;;;;;2.74;100.00;99587.19;20737082;28;20041;-83
2021/12/05 20:20:56;;;;;;;8.15;3.65;;;;;;;2.69;100.00;99593.19;20738627;28;20049;-83
2021/12/05 20:30:57;;;;;;;10.25;4.03;;;;;;;2.72;100.00;99599.22;20742278;28;20083;-85
2021/12/05 20:40:59;;;;;;;6.50;2.75;;;;;;;2.53;100.00;99618.09;20730138;28;20194;-85
2021/12/05 20:51:02;;;;;;;2.65;1.10;;;;;;;2.56;100.00;99629.31;20736231;28;20045;-86
2021/12/05 21:01:04;;;;;;;5.13;2.15;;;;;;;2.72;100.00;99639.72;20756688;28;20104;-83
2021/12/05 21:11:18;;;;;;;6.25;2.70;;;;;;;2.75;100.00;99650.94;20748248;28;20419;-84
2021/12/05 21:21:21;;;;;;;6.20;2.88;;;;;;;2.64;100.00;99657.78;20719331;28;20049;-83
2021/12/05 21:31:23;;;;;;;4.47;2.17;;;;;;;2.52;100.00;99668.91;20744902;28;20109;-85
2021/12/05 21:41:25;;;;;;;4.65;1.75;;;;;;;2.47;100.00;99675.78;20723569;28;20062;-85
2021/12/05 21:51:28;;;;;;;4.57;1.90;;;;;;;2.51;100.00;99689.59;20726831;28;20050;-84
2021/12/05 22:01:29;;;;;;;7.35;2.90;;;;;;;2.43;100.00;99704.19;20721845;28;20081;-85
2021/12/05 22:11:31;;;;;;;60.40;19.65;;;;;;;2.40;100.00;99724.84;20722182;28;20054;-85
2021/12/05 22:21:38;;;;;;;5.70;3.40;;;;;;;2.41;100.00;99726.56;20721377;28;20042;-85
2021/12/05 22:31:43;;;;;;;5.93;3.00;;;;;;;2.36;100.00;99728.25;20685197;28;20113;-85
2021/12/05 22:41:45;;;;;;;7.75;3.50;;;;;;;2.35;100.00;99736.84;20728954;28;20066;-85
2021/12/05 22:51:47;;;;;;;7.45;3.28;;;;;;;2.31;100.00;99759.22;20722289;28;20054;-84
2021/12/05 23:01:49;;;;;;;12.55;6.20;;;;;;;2.25;100.00;99754.88;20720180;28;20574;-85
2021/12/05 23:11:51;;;;;;;6.72;4.20;;;;;;;2.21;100.00;99772.94;20706193;28;20069;-85
2021/12/05 23:21:59;;;;;;;8.15;4.28;;;;;;;2.08;100.00;99789.16;20715352;28;20049;-85
2021/12/05 23:32:08;;;;;;;8.63;3.55;;;;;;;2.00;100.00;99807.16;20738378;28;20466;-86
2021/12/05 23:42:09;;;;;;;27.52;9.95;;;;;;;2.01;100.00;99812.34;20729083;28;20451;-84
2021/12/05 23:52:11;;;;;;;35.15;11.32;;;;;;;2.04;100.00;99811.50;20740138;28;20057;-85
